Aviation Digital Data Service (ADDS)

Output produced by TAFs form (2142 UTC 28 April 2016)
found at http://www.aviationweather.gov/adds/tafs/
 
KALB 281720Z 2818/2918 VRB03KT P6SM SCT250 
     FM282200 05005KT P6SM BKN120 
     FM291500 14005KT P6SM BKN035